Time,TemperatureF,DewpointF,PressureIn,WindDirection,WindDirectionDegrees,WindSpeedMPH,WindSpeedGustMPH,Humidity,HourlyPrecipIn,Conditions,Clouds,dailyrainin,SoftwareType,DateUTC
2016-07-24 00:07:00,98.2,55.0,29.43,West,270,2.0,8.0,23,0.00,,,0.00,weatherlink.com 1.10,2016-07-23 21:07:00,
2016-07-24 00:22:00,97.9,53.0,29.43,West,266,2.0,13.0,22,0.00,,,0.00,weatherlink.com 1.10,2016-07-23 21:22:00,
2016-07-24 00:37:00,97.5,54.0,29.43,WSW,258,2.0,6.0,23,0.00,,,0.00,weatherlink.com 1.10,2016-07-23 21:37:00,
2016-07-24 00:52:00,97.0,53.0,29.43,West,265,1.0,8.0,23,0.00,,,0.00,weatherlink.com 1.10,2016-07-23 21:52:00,
2016-07-24 01:07:00,96.7,58.0,29.43,WSW,258,3.0,6.0,27,0.00,,,0.00,weatherlink.com 1.10,2016-07-23 22:07:00,
2016-07-24 01:22:00,96.1,57.0,29.43,WSW,249,0.0,7.0,27,0.00,,,0.00,weatherlink.com 1.10,2016-07-23 22:22:00,
2016-07-24 01:37:00,95.7,58.0,29.43,WSW,244,4.0,6.0,28,0.00,,,0.00,weatherlink.com 1.10,2016-07-23 22:37:00,
2016-07-24 01:52:00,95.3,59.0,29.44,SW,236,4.0,9.0,30,0.00,,,0.00,weatherlink.com 1.10,2016-07-23 22:52:00,
2016-07-24 02:07:00,95.0,60.0,29.44,WSW,237,0.0,8.0,31,0.00,,,0.00,weatherlink.com 1.10,2016-07-23 23:07:00,
2016-07-24 02:22:00,94.7,59.0,29.44,WSW,241,3.0,6.0,30,0.00,,,0.00,weatherlink.com 1.10,2016-07-23 23:22:00,
2016-07-24 02:37:00,94.7,60.0,29.43,WSW,241,2.0,5.0,31,0.00,,,0.00,weatherlink.com 1.10,2016-07-23 23:37:00,
2016-07-24 02:52:00,94.4,59.0,29.43,WSW,241,2.0,6.0,31,0.00,,,0.00,weatherlink.com 1.10,2016-07-23 23:52:00,
2016-07-24 03:07:00,94.3,60.0,29.44,WSW,239,0.0,8.0,32,0.00,,,0.00,weatherlink.com 1.10,2016-07-24 00:07:00,
2016-07-24 03:22:00,94.0,61.0,29.44,WSW,249,1.0,7.0,33,0.00,,,0.00,weatherlink.com 1.10,2016-07-24 00:22:00,
2016-07-24 03:37:00,93.8,59.0,29.44,WSW,245,4.0,8.0,31,0.00,,,0.00,weatherlink.com 1.10,2016-07-24 00:37:00,
2016-07-24 03:52:00,93.6,59.0,29.44,WSW,241,1.0,10.0,31,0.00,,,0.00,weatherlink.com 1.10,2016-07-24 00:52:00,
2016-07-24 04:07:00,93.1,57.0,29.44,WSW,237,1.0,8.0,30,0.00,,,0.00,weatherlink.com 1.10,2016-07-24 01:07:00,
2016-07-24 04:22:00,92.8,56.0,29.44,WSW,239,5.0,8.0,29,0.00,,,0.00,weatherlink.com 1.10,2016-07-24 01:22:00,
2016-07-24 04:37:00,92.5,56.0,29.44,SW,236,0.0,10.0,29,0.00,,,0.00,weatherlink.com 1.10,2016-07-24 01:37:00,
2016-07-24 04:52:00,92.3,56.0,29.45,WSW,247,7.0,9.0,29,0.00,,,0.00,weatherlink.com 1.10,2016-07-24 01:52:00,
2016-07-24 05:07:00,92.3,55.0,29.45,WSW,243,3.0,9.0,28,0.00,,,0.00,weatherlink.com 1.10,2016-07-24 02:07:00,
2016-07-24 05:22:00,92.2,56.0,29.45,WSW,249,1.0,9.0,29,0.00,,,0.00,weatherlink.com 1.10,2016-07-24 02:22:00,
2016-07-24 05:37:00,92.2,56.0,29.45,WSW,248,6.0,9.0,29,0.00,,,0.00,weatherlink.com 1.10,2016-07-24 02:37:00,
2016-07-24 05:52:00,92.2,57.0,29.45,WSW,242,4.0,12.0,30,0.00,,,0.00,weatherlink.com 1.10,2016-07-24 02:52:00,
2016-07-24 06:07:00,92.5,55.0,29.46,WSW,245,4.0,11.0,28,0.00,,,0.00,weatherlink.com 1.10,2016-07-24 03:07:00,
2016-07-24 06:22:00,93.1,53.0,29.46,SW,235,0.0,10.0,26,0.00,,,0.00,weatherlink.com 1.10,2016-07-24 03:22:00,
2016-07-24 06:37:00,94.4,54.0,29.46,SW,235,3.0,9.0,25,0.00,,,0.00,weatherlink.com 1.10,2016-07-24 03:37:00,
2016-07-24 06:52:00,96.2,54.0,29.46,WSW,241,0.0,8.0,24,0.00,,,0.00,weatherlink.com 1.10,2016-07-24 03:52:00,
2016-07-24 07:07:00,98.0,53.0,29.47,SW,231,0.0,8.0,22,0.00,,,0.00,weatherlink.com 1.10,2016-07-24 04:07:00,
2016-07-24 07:22:00,99.1,55.0,29.47,WSW,239,0.0,10.0,23,0.00,,,0.00,weatherlink.com 1.10,2016-07-24 04:22:00,
2016-07-24 07:37:00,100.3,54.0,29.47,WSW,251,0.0,9.0,21,0.00,,,0.00,weatherlink.com 1.10,2016-07-24 04:37:00,
2016-07-24 07:52:00,101.1,53.0,29.47,SW,233,4.0,9.0,20,0.00,,,0.00,weatherlink.com 1.10,2016-07-24 04:52:00,
2016-07-24 08:07:00,102.5,53.0,29.47,WSW,243,0.0,9.0,19,0.00,,,0.00,weatherlink.com 1.10,2016-07-24 05:07:00,
2016-07-24 08:22:00,102.9,53.0,29.48,WSW,247,11.0,11.0,19,0.00,,,0.00,weatherlink.com 1.10,2016-07-24 05:22:00,
2016-07-24 08:37:00,103.4,52.0,29.47,WSW,255,9.0,11.0,18,0.00,,,0.00,weatherlink.com 1.10,2016-07-24 05:37:00,
2016-07-24 08:52:00,105.1,54.0,29.48,West,262,2.0,12.0,18,0.00,,,0.00,weatherlink.com 1.10,2016-07-24 05:52:00,
2016-07-24 09:07:00,106.8,54.0,29.48,WSW,240,3.0,10.0,17,0.00,,,0.00,weatherlink.com 1.10,2016-07-24 06:07:00,
2016-07-24 09:22:00,107.3,54.0,29.48,WSW,238,0.0,8.0,17,0.00,,,0.00,weatherlink.com 1.10,2016-07-24 06:22:00,
2016-07-24 09:38:00,108.1,55.0,29.48,SW,235,4.0,11.0,17,0.00,,,0.00,weatherlink.com 1.10,2016-07-24 06:38:00,
2016-07-24 09:53:00,108.8,54.0,29.48,West,274,1.0,7.0,16,0.00,,,0.00,weatherlink.com 1.10,2016-07-24 06:53:00,
2016-07-24 10:08:00,110.0,51.0,29.48,North,359,5.0,10.0,14,0.00,,,0.00,weatherlink.com 1.10,2016-07-24 07:08:00,
2016-07-24 10:23:00,108.6,53.0,29.48,WSW,247,6.0,11.0,16,0.00,,,0.00,weatherlink.com 1.10,2016-07-24 07:23:00,
2016-07-24 10:53:00,110.3,51.0,29.48,WSW,242,1.0,9.0,14,0.00,,,0.00,weatherlink.com 1.10,2016-07-24 07:53:00,
2016-07-24 11:08:00,110.6,51.0,29.48,WSW,247,5.0,10.0,14,0.00,,,0.00,weatherlink.com 1.10,2016-07-24 08:08:00,
2016-07-24 11:23:00,111.6,50.0,29.48,WSW,253,5.0,10.0,13,0.00,,,0.00,weatherlink.com 1.10,2016-07-24 08:23:00,
2016-07-24 11:38:00,112.2,49.0,29.48,WSW,258,8.0,10.0,12,0.00,,,0.00,weatherlink.com 1.10,2016-07-24 08:38:00,
2016-07-24 11:53:00,113.3,49.0,29.48,WSW,258,3.0,6.0,12,0.00,,,0.00,weatherlink.com 1.10,2016-07-24 08:53:00,
2016-07-24 12:08:00,114.7,48.0,29.47,North,359,0.0,9.0,11,0.00,,,0.00,weatherlink.com 1.10,2016-07-24 09:08:00,
2016-07-24 12:23:00,115.6,49.0,29.47,WSW,247,1.0,7.0,11,0.00,,,0.00,weatherlink.com 1.10,2016-07-24 09:23:00,
2016-07-24 12:38:00,114.9,46.0,29.47,West,274,3.0,8.0,10,0.00,,,0.00,weatherlink.com 1.10,2016-07-24 09:38:00,
2016-07-24 12:53:00,115.5,46.0,29.46,West,268,1.0,8.0,10,0.00,,,0.00,weatherlink.com 1.10,2016-07-24 09:53:00,
2016-07-24 13:08:00,115.4,46.0,29.46,North,359,2.0,5.0,10,0.00,,,0.00,weatherlink.com 1.10,2016-07-24 10:08:00,
2016-07-24 13:23:00,116.2,44.0,29.45,WNW,296,0.0,4.0,9,0.00,,,0.00,weatherlink.com 1.10,2016-07-24 10:23:00,
2016-07-24 13:38:00,117.1,45.0,29.45,West,268,4.0,7.0,9,0.00,,,0.00,weatherlink.com 1.10,2016-07-24 10:38:00,
2016-07-24 14:08:00,117.1,45.0,29.45,West,270,2.0,2.0,9,0.00,,,0.00,weatherlink.com 1.10,2016-07-24 11:08:00,
2016-07-24 14:23:00,117.6,48.0,29.44,West,269,1.0,4.0,10,0.00,,,0.00,weatherlink.com 1.10,2016-07-24 11:23:00,
2016-07-24 14:38:00,117.6,48.0,29.44,North,359,1.0,4.0,10,0.00,,,0.00,weatherlink.com 1.10,2016-07-24 11:38:00,
2016-07-24 14:53:00,116.7,45.0,29.44,WNW,291,6.0,7.0,9,0.00,,,0.00,weatherlink.com 1.10,2016-07-24 11:53:00,
2016-07-24 15:08:00,113.8,54.0,29.43,NE,54,3.0,8.0,14,0.00,,,0.00,weatherlink.com 1.10,2016-07-24 12:08:00,
2016-07-24 15:23:00,111.7,58.0,29.43,ENE,77,9.0,10.0,17,0.00,,,0.00,weatherlink.com 1.10,2016-07-24 12:23:00,
2016-07-24 15:38:00,111.2,54.0,29.43,East,87,9.0,13.0,15,0.00,,,0.00,weatherlink.com 1.10,2016-07-24 12:38:00,
2016-07-24 15:53:00,110.9,52.0,29.43,East,95,3.0,13.0,14,0.00,,,0.00,weatherlink.com 1.10,2016-07-24 12:53:00,
2016-07-24 16:08:00,110.4,53.0,29.42,East,92,7.0,14.0,15,0.00,,,0.00,weatherlink.com 1.10,2016-07-24 13:08:00,
2016-07-24 16:23:00,109.8,51.0,29.42,East,97,3.0,10.0,14,0.00,,,0.00,weatherlink.com 1.10,2016-07-24 13:23:00,
2016-07-24 16:38:00,109.7,51.0,29.42,East,99,10.0,13.0,14,0.00,,,0.00,weatherlink.com 1.10,2016-07-24 13:38:00,
2016-07-24 17:08:00,108.7,52.0,29.42,East,85,9.0,11.0,15,0.00,,,0.00,weatherlink.com 1.10,2016-07-24 14:08:00,
2016-07-24 17:23:00,108.1,55.0,29.42,East,95,10.0,14.0,17,0.00,,,0.00,weatherlink.com 1.10,2016-07-24 14:23:00,
2016-07-24 17:38:00,106.7,59.0,29.42,ESE,110,4.0,13.0,21,0.00,,,0.00,weatherlink.com 1.10,2016-07-24 14:38:00,
2016-07-24 17:53:00,105.8,60.0,29.43,East,81,1.0,12.0,22,0.00,,,0.00,weatherlink.com 1.10,2016-07-24 14:53:00,
2016-07-24 18:08:00,104.5,61.0,29.43,ESE,114,5.0,15.0,24,0.00,,,0.00,weatherlink.com 1.10,2016-07-24 15:08:00,
2016-07-24 18:23:00,103.7,62.0,29.43,East,97,3.0,11.0,25,0.00,,,0.00,weatherlink.com 1.10,2016-07-24 15:23:00,
2016-07-24 18:38:00,103.6,59.0,29.43,ESE,119,4.0,8.0,23,0.00,,,0.00,weatherlink.com 1.10,2016-07-24 15:38:00,
2016-07-24 18:53:00,103.5,57.0,29.44,ESE,107,8.0,10.0,21,0.00,,,0.00,weatherlink.com 1.10,2016-07-24 15:53:00,
2016-07-24 19:08:00,103.4,55.0,29.45,ESE,115,2.0,11.0,20,0.00,,,0.00,weatherlink.com 1.10,2016-07-24 16:08:00,
2016-07-24 19:23:00,103.1,53.0,29.45,SE,131,8.0,11.0,19,0.00,,,0.00,weatherlink.com 1.10,2016-07-24 16:23:00,
2016-07-24 19:38:00,103.0,52.0,29.45,ESE,114,8.0,9.0,18,0.00,,,0.00,weatherlink.com 1.10,2016-07-24 16:38:00,
2016-07-24 19:53:00,103.1,52.0,29.46,ESE,117,3.0,8.0,18,0.00,,,0.00,weatherlink.com 1.10,2016-07-24 16:53:00,
2016-07-24 20:08:00,103.2,51.0,29.46,ESE,116,2.0,9.0,17,0.00,,,0.00,weatherlink.com 1.10,2016-07-24 17:08:00,
2016-07-24 20:23:00,103.3,51.0,29.47,ESE,116,2.0,9.0,17,0.00,,,0.00,weatherlink.com 1.10,2016-07-24 17:23:00,
2016-07-24 20:38:00,103.1,52.0,29.47,ESE,121,2.0,8.0,18,0.00,,,0.00,weatherlink.com 1.10,2016-07-24 17:38:00,
2016-07-24 20:53:00,102.7,52.0,29.47,SE,129,5.0,8.0,18,0.00,,,0.00,weatherlink.com 1.10,2016-07-24 17:53:00,
2016-07-24 21:08:00,102.4,51.0,29.48,SE,135,5.0,8.0,18,0.00,,,0.00,weatherlink.com 1.10,2016-07-24 18:08:00,
2016-07-24 21:23:00,102.0,54.0,29.48,SE,138,3.0,4.0,20,0.00,,,0.00,weatherlink.com 1.10,2016-07-24 18:23:00,
2016-07-24 21:38:00,101.5,55.0,29.48,SE,142,4.0,9.0,21,0.00,,,0.00,weatherlink.com 1.10,2016-07-24 18:38:00,
2016-07-24 21:53:00,100.9,54.0,29.48,SE,141,7.0,10.0,21,0.00,,,0.00,weatherlink.com 1.10,2016-07-24 18:53:00,
2016-07-24 22:09:00,100.4,55.0,29.48,SE,143,3.0,8.0,22,0.00,,,0.00,weatherlink.com 1.10,2016-07-24 19:09:00,
2016-07-24 22:23:00,100.0,56.0,29.48,SE,143,1.0,9.0,23,0.00,,,0.00,weatherlink.com 1.10,2016-07-24 19:23:00,
2016-07-24 22:38:00,99.7,56.0,29.48,SSE,152,3.0,9.0,23,0.00,,,0.00,weatherlink.com 1.10,2016-07-24 19:38:00,
2016-07-24 22:53:00,99.3,54.0,29.48,SSE,148,5.0,9.0,22,0.00,,,0.00,weatherlink.com 1.10,2016-07-24 19:53:00,